sensor_id;sensor_type;location;lat;lon;timestamp;temperature;humidity
79356;SHT31;68825;51.978;5.654;2023-09-30T00:01:10;15.6;72.7
79356;SHT31;68825;51.978;5.654;2023-09-30T00:03:41;15.6;72.8
79356;SHT31;68825;51.978;5.654;2023-09-30T00:06:09;15.6;73.1
79356;SHT31;68825;51.978;5.654;2023-09-30T00:08:40;15.6;73.1
79356;SHT31;68825;51.978;5.654;2023-09-30T00:11:11;15.6;73.7
79356;SHT31;68825;51.978;5.654;2023-09-30T00:13:43;15.6;73.9
79356;SHT31;68825;51.978;5.654;2023-09-30T00:16:12;15.6;73.7
79356;SHT31;68825;51.978;5.654;2023-09-30T00:18:41;15.6;73.5
79356;SHT31;68825;51.978;5.654;2023-09-30T00:21:11;15.6;73.5
79356;SHT31;68825;51.978;5.654;2023-09-30T00:23:43;15.6;73.1
79356;SHT31;68825;51.978;5.654;2023-09-30T00:26:11;15.6;72.9
79356;SHT31;68825;51.978;5.654;2023-09-30T00:28:40;15.6;73.0
79356;SHT31;68825;51.978;5.654;2023-09-30T00:31:09;15.6;73.1
79356;SHT31;68825;51.978;5.654;2023-09-30T00:33:38;15.6;73.1
79356;SHT31;68825;51.978;5.654;2023-09-30T00:36:09;15.6;73.5
79356;SHT31;68825;51.978;5.654;2023-09-30T00:38:39;15.6;73.2
79356;SHT31;68825;51.978;5.654;2023-09-30T00:41:08;15.6;73.4
79356;SHT31;68825;51.978;5.654;2023-09-30T00:43:36;15.6;73.0
79356;SHT31;68825;51.978;5.654;2023-09-30T00:46:17;15.6;73.7
79356;SHT31;68825;51.978;5.654;2023-09-30T00:48:49;15.6;73.8
79356;SHT31;68825;51.978;5.654;2023-09-30T00:51:18;15.5;73.5
79356;SHT31;68825;51.978;5.654;2023-09-30T00:53:48;15.5;73.7
79356;SHT31;68825;51.978;5.654;2023-09-30T00:56:20;15.5;74.1
79356;SHT31;68825;51.978;5.654;2023-09-30T00:58:49;15.5;74.3
79356;SHT31;68825;51.978;5.654;2023-09-30T01:01:19;15.5;75.0
79356;SHT31;68825;51.978;5.654;2023-09-30T01:03:48;15.5;74.8
79356;SHT31;68825;51.978;5.654;2023-09-30T01:06:17;15.6;74.3
79356;SHT31;68825;51.978;5.654;2023-09-30T01:08:46;15.6;74.4
79356;SHT31;68825;51.978;5.654;2023-09-30T01:11:17;15.6;74.3
79356;SHT31;68825;51.978;5.654;2023-09-30T01:13:45;15.6;73.8
79356;SHT31;68825;51.978;5.654;2023-09-30T01:16:15;15.6;73.6
79356;SHT31;68825;51.978;5.654;2023-09-30T01:18:44;15.6;73.3
79356;SHT31;68825;51.978;5.654;2023-09-30T01:21:13;15.6;73.3
79356;SHT31;68825;51.978;5.654;2023-09-30T01:23:42;15.6;73.4
79356;SHT31;68825;51.978;5.654;2023-09-30T01:26:13;15.5;73.7
79356;SHT31;68825;51.978;5.654;2023-09-30T01:28:42;15.5;73.6
79356;SHT31;68825;51.978;5.654;2023-09-30T01:31:10;15.5;73.2
79356;SHT31;68825;51.978;5.654;2023-09-30T01:33:39;15.5;73.3
79356;SHT31;68825;51.978;5.654;2023-09-30T01:36:09;15.5;72.9
79356;SHT31;68825;51.978;5.654;2023-09-30T01:38:38;15.5;73.0
79356;SHT31;68825;51.978;5.654;2023-09-30T01:41:07;15.5;73.0
79356;SHT31;68825;51.978;5.654;2023-09-30T01:43:36;15.5;73.2
79356;SHT31;68825;51.978;5.654;2023-09-30T01:46:04;15.4;73.6
79356;SHT31;68825;51.978;5.654;2023-09-30T01:48:33;15.4;73.8
79356;SHT31;68825;51.978;5.654;2023-09-30T01:51:03;15.4;74.1
79356;SHT31;68825;51.978;5.654;2023-09-30T01:53:32;15.4;74.2
79356;SHT31;68825;51.978;5.654;2023-09-30T01:56:01;15.4;73.8
79356;SHT31;68825;51.978;5.654;2023-09-30T01:58:30;15.4;73.9
79356;SHT31;68825;51.978;5.654;2023-09-30T02:01:03;15.4;73.8
79356;SHT31;68825;51.978;5.654;2023-09-30T02:03:32;15.4;73.7
79356;SHT31;68825;51.978;5.654;2023-09-30T02:06:01;15.4;73.5
79356;SHT31;68825;51.978;5.654;2023-09-30T02:08:31;15.4;73.6
79356;SHT31;68825;51.978;5.654;2023-09-30T02:11:03;15.4;73.5
79356;SHT31;68825;51.978;5.654;2023-09-30T02:13:33;15.4;73.3
79356;SHT31;68825;51.978;5.654;2023-09-30T02:16:02;15.4;74.0
79356;SHT31;68825;51.978;5.654;2023-09-30T02:18:31;15.4;73.8
79356;SHT31;68825;51.978;5.654;2023-09-30T02:21:00;15.3;73.2
79356;SHT31;68825;51.978;5.654;2023-09-30T02:23:30;15.3;73.5
79356;SHT31;68825;51.978;5.654;2023-09-30T02:25:59;15.3;74.0
79356;SHT31;68825;51.978;5.654;2023-09-30T02:28:28;15.3;74.4
79356;SHT31;68825;51.978;5.654;2023-09-30T02:30:58;15.3;74.5
79356;SHT31;68825;51.978;5.654;2023-09-30T02:33:27;15.3;74.5
79356;SHT31;68825;51.978;5.654;2023-09-30T02:35:56;15.3;74.5
79356;SHT31;68825;51.978;5.654;2023-09-30T02:38:25;15.3;74.7
79356;SHT31;68825;51.978;5.654;2023-09-30T02:40:54;15.3;74.6
79356;SHT31;68825;51.978;5.654;2023-09-30T02:43:23;15.4;74.4
79356;SHT31;68825;51.978;5.654;2023-09-30T02:45:52;15.4;74.6
79356;SHT31;68825;51.978;5.654;2023-09-30T02:48:21;15.4;74.4
79356;SHT31;68825;51.978;5.654;2023-09-30T02:50:50;15.4;74.3
79356;SHT31;68825;51.978;5.654;2023-09-30T02:53:18;15.4;74.5
79356;SHT31;68825;51.978;5.654;2023-09-30T02:55:47;15.4;74.5
79356;SHT31;68825;51.978;5.654;2023-09-30T02:58:16;15.4;74.3
79356;SHT31;68825;51.978;5.654;2023-09-30T03:00:49;15.4;74.3
79356;SHT31;68825;51.978;5.654;2023-09-30T03:03:18;15.4;74.6
79356;SHT31;68825;51.978;5.654;2023-09-30T03:05:48;15.4;75.0
79356;SHT31;68825;51.978;5.654;2023-09-30T03:08:17;15.4;74.7
79356;SHT31;68825;51.978;5.654;2023-09-30T03:10:46;15.4;74.6
79356;SHT31;68825;51.978;5.654;2023-09-30T03:13:14;15.4;74.6
79356;SHT31;68825;51.978;5.654;2023-09-30T03:15:45;15.4;74.3
79356;SHT31;68825;51.978;5.654;2023-09-30T03:18:16;15.4;74.7
79356;SHT31;68825;51.978;5.654;2023-09-30T03:20:50;15.4;74.3
79356;SHT31;68825;51.978;5.654;2023-09-30T03:23:23;15.4;74.4
79356;SHT31;68825;51.978;5.654;2023-09-30T03:25:57;15.4;74.2
79356;SHT31;68825;51.978;5.654;2023-09-30T03:28:26;15.4;74.4
79356;SHT31;68825;51.978;5.654;2023-09-30T03:30:55;15.4;74.3
79356;SHT31;68825;51.978;5.654;2023-09-30T03:33:28;15.4;74.3
79356;SHT31;68825;51.978;5.654;2023-09-30T03:35:57;15.4;74.3
79356;SHT31;68825;51.978;5.654;2023-09-30T03:38:27;15.3;74.4
79356;SHT31;68825;51.978;5.654;2023-09-30T03:40:55;15.3;74.4
79356;SHT31;68825;51.978;5.654;2023-09-30T03:43:25;15.3;74.2
79356;SHT31;68825;51.978;5.654;2023-09-30T03:45:53;15.3;74.6
79356;SHT31;68825;51.978;5.654;2023-09-30T03:48:25;15.3;74.6
79356;SHT31;68825;51.978;5.654;2023-09-30T03:50:53;15.3;74.8
79356;SHT31;68825;51.978;5.654;2023-09-30T03:53:22;15.3;74.7
79356;SHT31;68825;51.978;5.654;2023-09-30T03:55:53;15.3;74.9
79356;SHT31;68825;51.978;5.654;2023-09-30T03:58:22;15.4;74.8
79356;SHT31;68825;51.978;5.654;2023-09-30T04:00:50;15.4;74.7
79356;SHT31;68825;51.978;5.654;2023-09-30T04:03:19;15.4;74.8
79356;SHT31;68825;51.978;5.654;2023-09-30T04:05:47;15.4;74.7
79356;SHT31;68825;51.978;5.654;2023-09-30T04:08:17;15.4;74.9
79356;SHT31;68825;51.978;5.654;2023-09-30T04:10:45;15.4;74.6
79356;SHT31;68825;51.978;5.654;2023-09-30T04:13:14;15.4;74.5
79356;SHT31;68825;51.978;5.654;2023-09-30T04:15:43;15.4;74.6
79356;SHT31;68825;51.978;5.654;2023-09-30T04:18:13;15.4;74.8
79356;SHT31;68825;51.978;5.654;2023-09-30T04:20:43;15.4;74.6
79356;SHT31;68825;51.978;5.654;2023-09-30T04:23:13;15.4;74.5
79356;SHT31;68825;51.978;5.654;2023-09-30T04:25:42;15.4;74.7
79356;SHT31;68825;51.978;5.654;2023-09-30T04:28:12;15.4;74.7
79356;SHT31;68825;51.978;5.654;2023-09-30T04:30:42;15.4;74.9
79356;SHT31;68825;51.978;5.654;2023-09-30T04:33:10;15.4;74.7
79356;SHT31;68825;51.978;5.654;2023-09-30T04:35:40;15.4;75.0
79356;SHT31;68825;51.978;5.654;2023-09-30T04:38:09;15.4;75.0
79356;SHT31;68825;51.978;5.654;2023-09-30T04:40:37;15.4;75.0
79356;SHT31;68825;51.978;5.654;2023-09-30T04:43:06;15.4;75.1
79356;SHT31;68825;51.978;5.654;2023-09-30T04:45:35;15.4;75.2
79356;SHT31;68825;51.978;5.654;2023-09-30T04:48:04;15.4;75.0
79356;SHT31;68825;51.978;5.654;2023-09-30T04:50:34;15.4;74.7
79356;SHT31;68825;51.978;5.654;2023-09-30T04:53:06;15.4;75.0
79356;SHT31;68825;51.978;5.654;2023-09-30T04:55:35;15.4;75.2
79356;SHT31;68825;51.978;5.654;2023-09-30T04:58:05;15.4;75.4
79356;SHT31;68825;51.978;5.654;2023-09-30T05:00:33;15.4;75.1
79356;SHT31;68825;51.978;5.654;2023-09-30T05:03:03;15.4;75.2
79356;SHT31;68825;51.978;5.654;2023-09-30T05:05:32;15.4;75.3
79356;SHT31;68825;51.978;5.654;2023-09-30T05:08:05;15.4;74.9
79356;SHT31;68825;51.978;5.654;2023-09-30T05:10:38;15.4;74.7
79356;SHT31;68825;51.978;5.654;2023-09-30T05:13:09;15.4;75.1
79356;SHT31;68825;51.978;5.654;2023-09-30T05:15:40;15.4;75.1
79356;SHT31;68825;51.978;5.654;2023-09-30T05:18:11;15.4;74.8
79356;SHT31;68825;51.978;5.654;2023-09-30T05:20:42;15.4;74.9
79356;SHT31;68825;51.978;5.654;2023-09-30T05:23:10;15.4;74.8
79356;SHT31;68825;51.978;5.654;2023-09-30T05:25:41;15.4;74.8
79356;SHT31;68825;51.978;5.654;2023-09-30T05:28:10;15.4;75.0
79356;SHT31;68825;51.978;5.654;2023-09-30T05:30:40;15.4;75.1
79356;SHT31;68825;51.978;5.654;2023-09-30T05:33:10;15.4;75.2
79356;SHT31;68825;51.978;5.654;2023-09-30T05:35:41;15.4;75.3
79356;SHT31;68825;51.978;5.654;2023-09-30T05:38:10;15.3;75.6
79356;SHT31;68825;51.978;5.654;2023-09-30T05:40:42;15.3;75.4
79356;SHT31;68825;51.978;5.654;2023-09-30T05:43:11;15.3;75.5
79356;SHT31;68825;51.978;5.654;2023-09-30T05:45:41;15.3;75.6
79356;SHT31;68825;51.978;5.654;2023-09-30T05:48:15;15.3;75.8
79356;SHT31;68825;51.978;5.654;2023-09-30T05:50:44;15.3;75.8
79356;SHT31;68825;51.978;5.654;2023-09-30T05:53:15;15.3;75.6
79356;SHT31;68825;51.978;5.654;2023-09-30T05:55:44;15.3;75.8
79356;SHT31;68825;51.978;5.654;2023-09-30T05:58:14;15.3;75.8
79356;SHT31;68825;51.978;5.654;2023-09-30T06:00:43;15.3;75.7
79356;SHT31;68825;51.978;5.654;2023-09-30T06:03:12;15.3;75.8
79356;SHT31;68825;51.978;5.654;2023-09-30T06:05:41;15.3;75.8
79356;SHT31;68825;51.978;5.654;2023-09-30T06:08:10;15.2;75.5
79356;SHT31;68825;51.978;5.654;2023-09-30T06:10:40;15.2;75.8
79356;SHT31;68825;51.978;5.654;2023-09-30T06:13:11;15.2;75.8
79356;SHT31;68825;51.978;5.654;2023-09-30T06:15:42;15.2;76.0
79356;SHT31;68825;51.978;5.654;2023-09-30T06:18:13;15.2;76.1
79356;SHT31;68825;51.978;5.654;2023-09-30T06:20:41;15.2;76.1
79356;SHT31;68825;51.978;5.654;2023-09-30T06:23:10;15.2;76.2
79356;SHT31;68825;51.978;5.654;2023-09-30T06:25:39;15.2;76.2
79356;SHT31;68825;51.978;5.654;2023-09-30T06:28:09;15.2;76.2
79356;SHT31;68825;51.978;5.654;2023-09-30T06:30:40;15.2;76.4
79356;SHT31;68825;51.978;5.654;2023-09-30T06:33:11;15.2;76.3
79356;SHT31;68825;51.978;5.654;2023-09-30T06:35:42;15.2;76.4
79356;SHT31;68825;51.978;5.654;2023-09-30T06:38:16;15.2;76.5
79356;SHT31;68825;51.978;5.654;2023-09-30T06:40:46;15.2;76.5
79356;SHT31;68825;51.978;5.654;2023-09-30T06:43:15;15.2;76.5
79356;SHT31;68825;51.978;5.654;2023-09-30T06:45:44;15.2;76.6
79356;SHT31;68825;51.978;5.654;2023-09-30T06:48:13;15.3;76.7
79356;SHT31;68825;51.978;5.654;2023-09-30T06:50:43;15.3;76.7
79356;SHT31;68825;51.978;5.654;2023-09-30T06:53:14;15.3;76.8
79356;SHT31;68825;51.978;5.654;2023-09-30T06:55:44;15.3;76.7
79356;SHT31;68825;51.978;5.654;2023-09-30T06:58:13;15.3;76.8
79356;SHT31;68825;51.978;5.654;2023-09-30T07:00:47;15.3;76.7
79356;SHT31;68825;51.978;5.654;2023-09-30T07:03:17;15.3;76.7
79356;SHT31;68825;51.978;5.654;2023-09-30T07:05:47;15.4;76.9
79356;SHT31;68825;51.978;5.654;2023-09-30T07:08:18;15.4;76.8
79356;SHT31;68825;51.978;5.654;2023-09-30T07:10:47;15.4;76.9
79356;SHT31;68825;51.978;5.654;2023-09-30T07:13:21;15.4;77.0
79356;SHT31;68825;51.978;5.654;2023-09-30T07:15:50;15.4;77.0
79356;SHT31;68825;51.978;5.654;2023-09-30T07:18:20;15.4;77.1
79356;SHT31;68825;51.978;5.654;2023-09-30T07:20:51;15.4;77.2
79356;SHT31;68825;51.978;5.654;2023-09-30T07:23:20;15.5;77.2
79356;SHT31;68825;51.978;5.654;2023-09-30T07:25:49;15.5;77.2
79356;SHT31;68825;51.978;5.654;2023-09-30T07:28:18;15.5;77.1
79356;SHT31;68825;51.978;5.654;2023-09-30T07:30:47;15.5;77.3
79356;SHT31;68825;51.978;5.654;2023-09-30T07:33:15;15.6;77.5
79356;SHT31;68825;51.978;5.654;2023-09-30T07:35:44;15.6;77.5
79356;SHT31;68825;51.978;5.654;2023-09-30T07:38:13;15.6;77.3
79356;SHT31;68825;51.978;5.654;2023-09-30T07:40:43;15.6;77.4
79356;SHT31;68825;51.978;5.654;2023-09-30T07:43:15;15.7;77.3
79356;SHT31;68825;51.978;5.654;2023-09-30T07:45:44;15.7;77.5
79356;SHT31;68825;51.978;5.654;2023-09-30T07:48:13;15.7;77.5
79356;SHT31;68825;51.978;5.654;2023-09-30T07:50:41;15.8;77.2
79356;SHT31;68825;51.978;5.654;2023-09-30T07:53:10;15.8;77.0
79356;SHT31;68825;51.978;5.654;2023-09-30T07:55:40;15.8;77.1
79356;SHT31;68825;51.978;5.654;2023-09-30T07:58:11;15.9;77.0
79356;SHT31;68825;51.978;5.654;2023-09-30T08:00:41;15.9;77.1
79356;SHT31;68825;51.978;5.654;2023-09-30T08:03:10;15.9;77.4
79356;SHT31;68825;51.978;5.654;2023-09-30T08:05:39;16.0;77.2
79356;SHT31;68825;51.978;5.654;2023-09-30T08:08:11;16.0;77.2
79356;SHT31;68825;51.978;5.654;2023-09-30T08:10:42;16.1;77.8
79356;SHT31;68825;51.978;5.654;2023-09-30T08:13:12;16.1;77.9
79356;SHT31;68825;51.978;5.654;2023-09-30T08:15:40;16.2;78.0
79356;SHT31;68825;51.978;5.654;2023-09-30T08:18:11;16.2;77.1
79356;SHT31;68825;51.978;5.654;2023-09-30T08:20:39;16.3;76.8
79356;SHT31;68825;51.978;5.654;2023-09-30T08:23:08;16.3;76.9
79356;SHT31;68825;51.978;5.654;2023-09-30T08:25:39;16.3;76.7
79356;SHT31;68825;51.978;5.654;2023-09-30T08:28:08;16.4;77.1
79356;SHT31;68825;51.978;5.654;2023-09-30T08:30:37;16.4;77.3
79356;SHT31;68825;51.978;5.654;2023-09-30T08:33:06;16.5;77.0
79356;SHT31;68825;51.978;5.654;2023-09-30T08:35:37;16.5;76.8
79356;SHT31;68825;51.978;5.654;2023-09-30T08:38:06;16.6;77.2
79356;SHT31;68825;51.978;5.654;2023-09-30T08:40:36;16.6;77.0
79356;SHT31;68825;51.978;5.654;2023-09-30T08:43:11;16.7;77.4
79356;SHT31;68825;51.978;5.654;2023-09-30T08:45:44;16.7;77.1
79356;SHT31;68825;51.978;5.654;2023-09-30T08:48:16;16.8;76.9
79356;SHT31;68825;51.978;5.654;2023-09-30T08:50:45;16.8;76.5
79356;SHT31;68825;51.978;5.654;2023-09-30T08:53:16;16.9;77.0
79356;SHT31;68825;51.978;5.654;2023-09-30T08:55:46;16.9;76.9
79356;SHT31;68825;51.978;5.654;2023-09-30T08:58:18;17.0;76.8
79356;SHT31;68825;51.978;5.654;2023-09-30T09:00:50;17.0;76.9
79356;SHT31;68825;51.978;5.654;2023-09-30T09:03:20;17.1;77.0
79356;SHT31;68825;51.978;5.654;2023-09-30T09:05:55;17.1;76.2
79356;SHT31;68825;51.978;5.654;2023-09-30T09:08:27;17.2;75.8
79356;SHT31;68825;51.978;5.654;2023-09-30T09:11:01;17.2;75.9
79356;SHT31;68825;51.978;5.654;2023-09-30T09:13:49;17.3;76.0
79356;SHT31;68825;51.978;5.654;2023-09-30T09:16:23;17.3;76.0
79356;SHT31;68825;51.978;5.654;2023-09-30T09:18:52;17.4;76.1
79356;SHT31;68825;51.978;5.654;2023-09-30T09:21:23;17.4;76.0
79356;SHT31;68825;51.978;5.654;2023-09-30T09:23:54;17.5;75.8
79356;SHT31;68825;51.978;5.654;2023-09-30T09:26:29;17.5;75.3
79356;SHT31;68825;51.978;5.654;2023-09-30T09:29:00;17.6;75.2
79356;SHT31;68825;51.978;5.654;2023-09-30T09:31:32;17.6;75.2
79356;SHT31;68825;51.978;5.654;2023-09-30T09:34:03;17.6;75.2
79356;SHT31;68825;51.978;5.654;2023-09-30T09:36:43;17.7;75.0
79356;SHT31;68825;51.978;5.654;2023-09-30T09:39:13;17.7;74.7
79356;SHT31;68825;51.978;5.654;2023-09-30T09:41:52;17.8;74.6
79356;SHT31;68825;51.978;5.654;2023-09-30T09:44:24;17.8;74.7
79356;SHT31;68825;51.978;5.654;2023-09-30T09:46:53;17.9;74.7
79356;SHT31;68825;51.978;5.654;2023-09-30T09:49:22;17.9;75.1
79356;SHT31;68825;51.978;5.654;2023-09-30T09:51:52;18.0;74.5
79356;SHT31;68825;51.978;5.654;2023-09-30T09:54:22;18.0;74.7
79356;SHT31;68825;51.978;5.654;2023-09-30T09:56:53;18.1;74.3
79356;SHT31;68825;51.978;5.654;2023-09-30T09:59:25;18.1;75.1
79356;SHT31;68825;51.978;5.654;2023-09-30T10:01:54;18.2;74.3
79356;SHT31;68825;51.978;5.654;2023-09-30T10:04:24;18.2;74.9
79356;SHT31;68825;51.978;5.654;2023-09-30T10:06:55;18.3;74.2
79356;SHT31;68825;51.978;5.654;2023-09-30T10:09:24;18.3;74.3
79356;SHT31;68825;51.978;5.654;2023-09-30T10:11:58;18.4;74.7
79356;SHT31;68825;51.978;5.654;2023-09-30T10:14:32;18.5;75.2
79356;SHT31;68825;51.978;5.654;2023-09-30T10:17:02;18.6;74.0
79356;SHT31;68825;51.978;5.654;2023-09-30T10:19:31;18.7;72.6
79356;SHT31;68825;51.978;5.654;2023-09-30T10:24:30;18.8;72.2
79356;SHT31;68825;51.978;5.654;2023-09-30T10:28:01;18.9;71.6
79356;SHT31;68825;51.978;5.654;2023-09-30T10:30:37;19.0;70.9
79356;SHT31;68825;51.978;5.654;2023-09-30T10:33:11;19.1;70.6
79356;SHT31;68825;51.978;5.654;2023-09-30T10:35:45;19.2;69.9
79356;SHT31;68825;51.978;5.654;2023-09-30T10:38:40;19.2;71.2
79356;SHT31;68825;51.978;5.654;2023-09-30T10:44:33;19.4;67.6
79356;SHT31;68825;51.978;5.654;2023-09-30T10:49:54;19.5;68.3
79356;SHT31;68825;51.978;5.654;2023-09-30T10:52:23;19.6;66.3
79356;SHT31;68825;51.978;5.654;2023-09-30T10:54:53;19.7;68.1
79356;SHT31;68825;51.978;5.654;2023-09-30T10:57:31;19.7;68.3
79356;SHT31;68825;51.978;5.654;2023-09-30T11:00:09;19.8;68.0
79356;SHT31;68825;51.978;5.654;2023-09-30T11:02:51;19.9;66.7
79356;SHT31;68825;51.978;5.654;2023-09-30T11:05:20;20.0;65.8
79356;SHT31;68825;51.978;5.654;2023-09-30T11:07:50;20.1;65.9
79356;SHT31;68825;51.978;5.654;2023-09-30T11:10:20;20.2;65.2
79356;SHT31;68825;51.978;5.654;2023-09-30T11:13:00;20.4;63.5
79356;SHT31;68825;51.978;5.654;2023-09-30T11:15:29;20.5;59.4
79356;SHT31;68825;51.978;5.654;2023-09-30T11:18:15;20.6;61.2
79356;SHT31;68825;51.978;5.654;2023-09-30T11:20:44;20.7;60.0
79356;SHT31;68825;51.978;5.654;2023-09-30T11:23:17;20.8;60.2
79356;SHT31;68825;51.978;5.654;2023-09-30T11:25:49;20.8;58.3
79356;SHT31;68825;51.978;5.654;2023-09-30T11:28:18;20.9;57.1
79356;SHT31;68825;51.978;5.654;2023-09-30T11:30:59;20.9;58.1
79356;SHT31;68825;51.978;5.654;2023-09-30T11:33:29;20.9;58.2
79356;SHT31;68825;51.978;5.654;2023-09-30T11:36:03;21.0;58.6
79356;SHT31;68825;51.978;5.654;2023-09-30T11:38:34;20.9;58.3
79356;SHT31;68825;51.978;5.654;2023-09-30T11:41:04;20.9;58.7
79356;SHT31;68825;51.978;5.654;2023-09-30T11:43:34;20.9;58.0
79356;SHT31;68825;51.978;5.654;2023-09-30T11:46:06;20.8;57.9
79356;SHT31;68825;51.978;5.654;2023-09-30T11:48:38;20.8;59.7
79356;SHT31;68825;51.978;5.654;2023-09-30T11:51:07;20.7;59.5
79356;SHT31;68825;51.978;5.654;2023-09-30T11:53:36;20.7;62.0
79356;SHT31;68825;51.978;5.654;2023-09-30T11:56:05;20.6;59.8
79356;SHT31;68825;51.978;5.654;2023-09-30T11:58:36;20.6;59.8
79356;SHT31;68825;51.978;5.654;2023-09-30T12:01:05;20.6;56.5
79356;SHT31;68825;51.978;5.654;2023-09-30T12:03:38;20.6;58.9
79356;SHT31;68825;51.978;5.654;2023-09-30T12:06:07;20.6;57.5
79356;SHT31;68825;51.978;5.654;2023-09-30T12:08:40;20.6;57.6
79356;SHT31;68825;51.978;5.654;2023-09-30T12:11:08;20.7;57.9
79356;SHT31;68825;51.978;5.654;2023-09-30T12:13:39;20.7;60.5
79356;SHT31;68825;51.978;5.654;2023-09-30T12:16:11;20.7;58.3
79356;SHT31;68825;51.978;5.654;2023-09-30T12:18:40;20.7;58.0
79356;SHT31;68825;51.978;5.654;2023-09-30T12:21:09;20.8;57.0
79356;SHT31;68825;51.978;5.654;2023-09-30T12:23:40;20.8;59.2
79356;SHT31;68825;51.978;5.654;2023-09-30T12:26:10;20.8;58.3
79356;SHT31;68825;51.978;5.654;2023-09-30T12:28:40;20.8;57.9
79356;SHT31;68825;51.978;5.654;2023-09-30T12:31:09;20.9;57.8
79356;SHT31;68825;51.978;5.654;2023-09-30T12:33:37;20.9;56.8
79356;SHT31;68825;51.978;5.654;2023-09-30T12:36:07;20.9;56.4
79356;SHT31;68825;51.978;5.654;2023-09-30T12:38:36;20.9;57.8
79356;SHT31;68825;51.978;5.654;2023-09-30T12:41:06;20.9;58.5
79356;SHT31;68825;51.978;5.654;2023-09-30T12:43:35;21.0;56.4
79356;SHT31;68825;51.978;5.654;2023-09-30T12:46:03;21.0;59.4
79356;SHT31;68825;51.978;5.654;2023-09-30T12:48:33;21.0;60.0
79356;SHT31;68825;51.978;5.654;2023-09-30T12:51:07;21.0;58.7
79356;SHT31;68825;51.978;5.654;2023-09-30T12:53:36;21.0;58.0
79356;SHT31;68825;51.978;5.654;2023-09-30T12:56:07;21.0;55.5
79356;SHT31;68825;51.978;5.654;2023-09-30T12:58:36;21.0;55.4
79356;SHT31;68825;51.978;5.654;2023-09-30T13:01:06;21.0;55.0
79356;SHT31;68825;51.978;5.654;2023-09-30T13:03:34;21.0;53.8
79356;SHT31;68825;51.978;5.654;2023-09-30T13:06:03;21.1;54.5
79356;SHT31;68825;51.978;5.654;2023-09-30T13:08:32;21.1;53.9
79356;SHT31;68825;51.978;5.654;2023-09-30T13:11:05;21.1;56.9
79356;SHT31;68825;51.978;5.654;2023-09-30T13:13:34;21.1;53.6
79356;SHT31;68825;51.978;5.654;2023-09-30T13:16:04;21.1;55.2
79356;SHT31;68825;51.978;5.654;2023-09-30T13:18:34;21.2;58.1
79356;SHT31;68825;51.978;5.654;2023-09-30T13:21:04;21.2;56.4
79356;SHT31;68825;51.978;5.654;2023-09-30T13:23:34;21.2;53.2
79356;SHT31;68825;51.978;5.654;2023-09-30T13:26:03;21.2;55.5
79356;SHT31;68825;51.978;5.654;2023-09-30T13:28:31;21.2;54.5
79356;SHT31;68825;51.978;5.654;2023-09-30T13:31:00;21.2;54.7
79356;SHT31;68825;51.978;5.654;2023-09-30T13:33:29;21.3;52.2
79356;SHT31;68825;51.978;5.654;2023-09-30T13:35:57;21.3;53.2
79356;SHT31;68825;51.978;5.654;2023-09-30T13:38:27;21.3;54.1
79356;SHT31;68825;51.978;5.654;2023-09-30T13:40:55;21.3;52.5
79356;SHT31;68825;51.978;5.654;2023-09-30T13:43:24;21.3;52.2
79356;SHT31;68825;51.978;5.654;2023-09-30T13:45:53;21.4;54.1
79356;SHT31;68825;51.978;5.654;2023-09-30T13:48:22;21.4;55.5
79356;SHT31;68825;51.978;5.654;2023-09-30T13:50:51;21.4;54.6
79356;SHT31;68825;51.978;5.654;2023-09-30T13:53:20;21.5;54.7
79356;SHT31;68825;51.978;5.654;2023-09-30T13:55:48;21.5;54.4
79356;SHT31;68825;51.978;5.654;2023-09-30T13:58:17;21.5;55.4
79356;SHT31;68825;51.978;5.654;2023-09-30T14:00:48;21.6;53.2
79356;SHT31;68825;51.978;5.654;2023-09-30T14:03:19;21.6;54.2
79356;SHT31;68825;51.978;5.654;2023-09-30T14:05:50;21.6;56.5
79356;SHT31;68825;51.978;5.654;2023-09-30T14:08:21;21.6;53.3
79356;SHT31;68825;51.978;5.654;2023-09-30T14:10:50;21.5;53.0
79356;SHT31;68825;51.978;5.654;2023-09-30T14:13:19;21.5;55.2
79356;SHT31;68825;51.978;5.654;2023-09-30T14:15:50;21.5;53.1
79356;SHT31;68825;51.978;5.654;2023-09-30T14:18:19;21.5;53.6
79356;SHT31;68825;51.978;5.654;2023-09-30T14:20:47;21.5;52.6
79356;SHT31;68825;51.978;5.654;2023-09-30T14:23:16;21.5;55.0
79356;SHT31;68825;51.978;5.654;2023-09-30T14:25:45;21.5;53.1
79356;SHT31;68825;51.978;5.654;2023-09-30T14:28:15;21.5;52.5
79356;SHT31;68825;51.978;5.654;2023-09-30T14:30:44;21.5;53.3
79356;SHT31;68825;51.978;5.654;2023-09-30T14:33:13;21.5;52.0
79356;SHT31;68825;51.978;5.654;2023-09-30T14:35:41;21.5;54.3
79356;SHT31;68825;51.978;5.654;2023-09-30T14:38:11;21.5;53.3
79356;SHT31;68825;51.978;5.654;2023-09-30T14:40:40;21.5;51.7
79356;SHT31;68825;51.978;5.654;2023-09-30T14:43:09;21.5;53.0
79356;SHT31;68825;51.978;5.654;2023-09-30T14:45:41;21.5;52.0
79356;SHT31;68825;51.978;5.654;2023-09-30T14:48:09;21.5;52.9
79356;SHT31;68825;51.978;5.654;2023-09-30T14:50:49;21.5;55.6
79356;SHT31;68825;51.978;5.654;2023-09-30T14:53:20;21.5;52.0
79356;SHT31;68825;51.978;5.654;2023-09-30T14:55:49;21.5;53.1
79356;SHT31;68825;51.978;5.654;2023-09-30T14:58:18;21.5;52.2
79356;SHT31;68825;51.978;5.654;2023-09-30T15:00:46;21.4;52.7
79356;SHT31;68825;51.978;5.654;2023-09-30T15:03:17;21.4;55.2
79356;SHT31;68825;51.978;5.654;2023-09-30T15:05:48;21.4;55.8
79356;SHT31;68825;51.978;5.654;2023-09-30T15:08:17;21.4;55.8
79356;SHT31;68825;51.978;5.654;2023-09-30T15:10:48;21.4;54.6
79356;SHT31;68825;51.978;5.654;2023-09-30T15:13:16;21.3;53.8
79356;SHT31;68825;51.978;5.654;2023-09-30T15:15:45;21.3;55.8
79356;SHT31;68825;51.978;5.654;2023-09-30T15:18:13;21.3;55.1
79356;SHT31;68825;51.978;5.654;2023-09-30T15:20:42;21.3;58.2
79356;SHT31;68825;51.978;5.654;2023-09-30T15:23:11;21.3;55.2
79356;SHT31;68825;51.978;5.654;2023-09-30T15:25:41;21.3;54.1
79356;SHT31;68825;51.978;5.654;2023-09-30T15:28:10;21.3;56.9
79356;SHT31;68825;51.978;5.654;2023-09-30T15:30:40;21.2;57.6
79356;SHT31;68825;51.978;5.654;2023-09-30T15:33:09;21.2;58.8
79356;SHT31;68825;51.978;5.654;2023-09-30T15:35:37;21.2;58.9
79356;SHT31;68825;51.978;5.654;2023-09-30T15:38:08;21.2;56.5
79356;SHT31;68825;51.978;5.654;2023-09-30T15:40:50;21.2;55.3
79356;SHT31;68825;51.978;5.654;2023-09-30T15:43:20;21.2;57.0
79356;SHT31;68825;51.978;5.654;2023-09-30T15:45:51;21.2;55.3
79356;SHT31;68825;51.978;5.654;2023-09-30T15:48:27;21.2;57.1
79356;SHT31;68825;51.978;5.654;2023-09-30T15:50:58;21.2;56.5
79356;SHT31;68825;51.978;5.654;2023-09-30T15:53:30;21.2;58.1
79356;SHT31;68825;51.978;5.654;2023-09-30T15:56:05;21.2;57.4
79356;SHT31;68825;51.978;5.654;2023-09-30T15:58:37;21.2;56.2
79356;SHT31;68825;51.978;5.654;2023-09-30T16:01:11;21.2;57.7
79356;SHT31;68825;51.978;5.654;2023-09-30T16:03:46;21.2;56.0
79356;SHT31;68825;51.978;5.654;2023-09-30T16:06:20;21.1;57.9
79356;SHT31;68825;51.978;5.654;2023-09-30T16:08:53;21.1;57.6
79356;SHT31;68825;51.978;5.654;2023-09-30T16:11:27;21.1;56.3
79356;SHT31;68825;51.978;5.654;2023-09-30T16:14:00;21.1;57.6
79356;SHT31;68825;51.978;5.654;2023-09-30T16:16:35;21.1;58.4
79356;SHT31;68825;51.978;5.654;2023-09-30T16:19:05;21.0;59.0
79356;SHT31;68825;51.978;5.654;2023-09-30T16:21:35;21.0;58.2
79356;SHT31;68825;51.978;5.654;2023-09-30T16:24:04;20.9;59.0
79356;SHT31;68825;51.978;5.654;2023-09-30T16:26:33;20.9;60.8
79356;SHT31;68825;51.978;5.654;2023-09-30T16:29:02;20.9;59.9
79356;SHT31;68825;51.978;5.654;2023-09-30T16:31:30;20.8;60.1